createdAt,value
2019-05-02T00:00:19.943Z,10.24
2019-05-02T00:02:47.169Z,10.19
2019-05-02T00:05:14.446Z,10.15
2019-05-02T00:07:41.503Z,10.13
2019-05-02T00:10:09.618Z,10.12
2019-05-02T00:12:36.922Z,10.12
2019-05-02T00:15:04.257Z,10.08
2019-05-02T00:17:31.564Z,10.02
2019-05-02T00:19:59.669Z,9.94
2019-05-02T00:22:27.042Z,9.88
2019-05-02T00:24:54.076Z,9.80
2019-05-02T00:27:21.198Z,9.75
2019-05-02T00:29:48.233Z,9.70
2019-05-02T00:32:18.281Z,9.65
2019-05-02T00:34:44.533Z,9.59
2019-05-02T00:37:11.891Z,9.55
2019-05-02T00:39:38.933Z,9.51
2019-05-02T00:42:12.331Z,9.49
2019-05-02T00:44:34.706Z,9.45
2019-05-02T00:47:06.180Z,9.43
2019-05-02T00:49:30.882Z,9.42
2019-05-02T00:52:01.359Z,9.41
2019-05-02T00:54:27.075Z,9.42
2019-05-02T00:56:54.369Z,9.42
2019-05-02T00:59:21.402Z,9.43
2019-05-02T01:01:48.474Z,9.44
2019-05-02T01:04:15.779Z,9.44
2019-05-02T01:06:44.779Z,9.44
2019-05-02T01:09:13.044Z,9.45
2019-05-02T01:11:40.399Z,9.50
2019-05-02T01:14:07.745Z,9.51
2019-05-02T01:16:34.794Z,9.49
2019-05-02T01:19:02.153Z,9.47
2019-05-02T01:21:29.512Z,9.45
2019-05-02T01:23:58.958Z,9.48
2019-05-02T01:26:29.367Z,9.51
2019-05-02T01:28:55.705Z,9.57
2019-05-02T01:31:23.022Z,9.61
2019-05-02T01:33:50.379Z,9.59
2019-05-02T01:36:17.424Z,9.61
2019-05-02T01:38:44.722Z,9.55
2019-05-02T01:41:11.783Z,9.46
2019-05-02T01:43:38.806Z,9.38
2019-05-02T01:46:05.846Z,9.32
2019-05-02T01:48:33.193Z,9.26
2019-05-02T01:51:04.472Z,9.17
2019-05-02T01:53:33.780Z,9.14
2019-05-02T01:55:59.354Z,9.13
2019-05-02T01:58:26.501Z,9.17
2019-05-02T02:00:53.841Z,9.27
2019-05-02T02:03:20.887Z,9.41
2019-05-02T02:05:47.927Z,9.48
2019-05-02T02:08:14.974Z,9.71
2019-05-02T02:10:43.835Z,9.82
2019-05-02T02:13:10.742Z,10.00
2019-05-02T02:15:38.059Z,9.98
2019-05-02T02:18:05.093Z,9.95
2019-05-02T02:20:32.482Z,9.99
2019-05-02T02:22:59.526Z,10.11
2019-05-02T02:25:26.573Z,10.23
2019-05-02T02:27:54.971Z,10.51
2019-05-02T02:30:24.658Z,10.56
2019-05-02T02:32:52.126Z,10.51
2019-05-02T02:35:19.172Z,10.47
2019-05-02T02:37:52.978Z,10.42
2019-05-02T02:40:15.313Z,10.39
2019-05-02T02:42:42.353Z,10.31
2019-05-02T02:45:13.046Z,10.30
2019-05-02T02:47:38.412Z,10.31
2019-05-02T02:50:05.776Z,10.30
2019-05-02T02:52:37.887Z,10.26
2019-05-02T02:55:02.110Z,10.25
2019-05-02T02:57:29.145Z,10.17
2019-05-02T03:00:06.110Z,10.07
2019-05-02T03:02:26.322Z,10.05
2019-05-02T03:04:53.373Z,10.03
2019-05-02T03:07:26.175Z,9.95
2019-05-02T03:09:49.416Z,9.85
2019-05-02T03:12:16.769Z,9.76
2019-05-02T03:14:47.284Z,9.61
2019-05-02T03:17:12.921Z,9.47
2019-05-02T03:19:40.269Z,9.29
2019-05-02T03:22:07.641Z,9.17
2019-05-02T03:24:36.768Z,9.06
2019-05-02T03:27:03.986Z,8.95
2019-05-02T03:29:41.815Z,8.90
2019-05-02T03:32:14.020Z,8.84
2019-05-02T03:34:45.062Z,8.79
2019-05-02T03:37:03.230Z,8.74
2019-05-02T03:39:35.899Z,8.68
2019-05-02T03:42:04.984Z,8.61
2019-05-02T03:44:31.987Z,8.52
2019-05-02T03:47:02.214Z,8.44
2019-05-02T03:49:28.291Z,8.38
2019-05-02T03:54:24.868Z,8.33
2019-05-02T03:56:53.385Z,8.31
2019-05-02T03:59:20.885Z,8.30
2019-05-02T04:01:47.940Z,8.32
2019-05-02T04:04:20.492Z,8.34
2019-05-02T04:06:44.390Z,8.37
2019-05-02T04:09:11.741Z,8.44
2019-05-02T04:11:40.902Z,8.53
2019-05-02T04:14:14.914Z,8.71
2019-05-02T04:16:36.299Z,8.92
2019-05-02T04:19:03.338Z,9.24
2019-05-02T04:21:30.682Z,9.65
2019-05-02T04:24:07.576Z,10.08
2019-05-02T04:26:26.544Z,10.58
2019-05-02T04:28:53.914Z,11.19
2019-05-02T04:31:24.698Z,11.87
2019-05-02T04:33:50.106Z,12.57
2019-05-02T04:36:17.991Z,13.18
2019-05-02T04:38:51.102Z,13.17
2019-05-02T04:41:18.717Z,12.93
2019-05-02T04:43:57.625Z,13.78
2019-05-02T04:46:30.431Z,14.79
2019-05-02T04:48:54.041Z,15.76
2019-05-02T04:51:21.090Z,16.46
2019-05-02T04:53:49.896Z,16.90
2019-05-02T04:56:18.849Z,17.23
2019-05-02T04:58:48.991Z,17.05
2019-05-02T05:03:58.239Z,18.23
2019-05-02T05:06:25.014Z,18.96
2019-05-02T05:08:52.050Z,19.94
2019-05-02T05:11:24.698Z,20.87
2019-05-02T05:13:52.442Z,21.63
2019-05-02T05:16:18.544Z,22.45
2019-05-02T05:18:49.344Z,23.18
2019-05-02T05:21:14.954Z,23.91
2019-05-02T05:23:42.585Z,24.64
2019-05-02T05:26:09.633Z,25.23
2019-05-02T05:28:40.476Z,25.13
2019-05-02T05:31:07.722Z,25.11
2019-05-02T05:33:34.904Z,25.59
2019-05-02T05:36:02.033Z,26.27
2019-05-02T05:38:32.620Z,25.26
2019-05-02T05:40:58.147Z,23.15
2019-05-02T05:43:27.546Z,22.03
2019-05-02T05:46:06.032Z,21.59
2019-05-02T05:48:23.291Z,22.88
2019-05-02T05:50:50.334Z,24.50
2019-05-02T05:53:20.990Z,25.68
2019-05-02T05:55:47.326Z,26.62
2019-05-02T05:58:15.787Z,27.22
2019-05-02T06:00:45.812Z,27.55
2019-05-02T06:03:14.215Z,27.94
2019-05-02T06:05:42.319Z,28.23
2019-05-02T06:08:13.900Z,28.62
2019-05-02T06:10:43.478Z,28.90
2019-05-02T06:13:10.890Z,29.08
2019-05-02T06:15:38.923Z,27.61
2019-05-02T06:18:06.203Z,27.16
2019-05-02T06:20:33.649Z,27.58
2019-05-02T06:23:01.348Z,26.88
2019-05-02T06:25:34.060Z,25.66
2019-05-02T06:28:00.223Z,25.13
2019-05-02T06:30:31.080Z,25.14
2019-05-02T06:32:56.884Z,25.59
2019-05-02T06:35:24.240Z,25.94
2019-05-02T06:37:51.954Z,26.33
2019-05-02T06:40:20.072Z,26.87
2019-05-02T06:42:47.110Z,27.43
2019-05-02T06:45:14.473Z,27.20
2019-05-02T06:47:43.570Z,26.56
2019-05-02T06:50:11.720Z,25.87
2019-05-02T06:52:38.618Z,25.92
2019-05-02T06:55:05.926Z,25.84
2019-05-02T06:57:33.031Z,26.42
2019-05-02T07:00:00.155Z,26.97
2019-05-02T07:02:28.155Z,27.54
2019-05-02T07:04:56.508Z,27.09
2019-05-02T07:07:24.978Z,25.81
2019-05-02T07:09:52.941Z,25.03
2019-05-02T07:12:19.980Z,24.87
2019-05-02T07:14:47.039Z,24.74
2019-05-02T07:17:14.082Z,24.61
2019-05-02T07:19:41.560Z,24.39
2019-05-02T07:22:08.609Z,24.05
2019-05-02T07:24:35.664Z,23.52
2019-05-02T07:27:02.801Z,23.17
2019-05-02T07:29:30.143Z,23.38
2019-05-02T07:31:57.516Z,23.34
2019-05-02T07:34:24.566Z,23.32
2019-05-02T07:36:52.678Z,23.70
2019-05-02T07:39:20.075Z,23.93
2019-05-02T07:41:47.432Z,24.21
2019-05-02T07:44:14.495Z,24.64
2019-05-02T07:46:51.555Z,24.65
2019-05-02T07:49:10.623Z,24.90
2019-05-02T07:51:37.981Z,25.52
2019-05-02T07:54:05.036Z,26.12
2019-05-02T07:56:32.410Z,26.04
2019-05-02T07:58:59.736Z,25.91
2019-05-02T08:01:28.111Z,26.28
2019-05-02T08:03:55.467Z,26.60
2019-05-02T08:06:34.640Z,26.48
2019-05-02T08:08:51.821Z,26.45
2019-05-02T08:11:19.170Z,26.33
2019-05-02T08:13:49.612Z,25.90
2019-05-02T08:16:15.319Z,26.40
2019-05-02T08:18:42.610Z,26.67
2019-05-02T08:21:09.668Z,26.46
2019-05-02T08:23:36.706Z,26.19
2019-05-02T08:26:04.039Z,25.94
2019-05-02T08:28:31.079Z,25.55
2019-05-02T08:30:58.423Z,25.67
2019-05-02T08:33:29.303Z,25.19
2019-05-02T08:35:54.877Z,25.32
2019-05-02T08:38:22.235Z,25.48
2019-05-02T08:40:49.795Z,24.82
2019-05-02T08:43:16.977Z,24.37
2019-05-02T08:45:44.036Z,24.03
2019-05-02T08:48:11.343Z,24.12
2019-05-02T08:50:38.703Z,24.38
2019-05-02T08:53:05.811Z,24.37
2019-05-02T08:55:32.872Z,23.67
2019-05-02T08:57:59.911Z,23.95
2019-05-02T09:00:27.301Z,24.25
2019-05-02T09:02:57.015Z,24.61
2019-05-02T09:05:23.443Z,24.75
2019-05-02T09:07:50.800Z,24.58
2019-05-02T09:10:17.869Z,24.78
2019-05-02T09:12:45.611Z,24.96
2019-05-02T09:15:13.027Z,24.96
2019-05-02T09:17:44.607Z,25.09
2019-05-02T09:20:14.951Z,25.11
2019-05-02T09:22:37.594Z,24.58
2019-05-02T09:25:04.637Z,24.33
2019-05-02T09:27:31.924Z,24.55
2019-05-02T09:29:58.893Z,24.57
2019-05-02T09:32:26.622Z,25.00
2019-05-02T09:34:56.696Z,25.07
2019-05-02T09:37:22.821Z,25.10
2019-05-02T09:39:52.447Z,25.02
2019-05-02T09:42:19.298Z,24.81
2019-05-02T09:44:48.060Z,24.64
2019-05-02T09:47:15.411Z,24.79
2019-05-02T09:49:48.875Z,24.42
2019-05-02T09:52:11.925Z,24.05
2019-05-02T09:54:42.499Z,23.80
2019-05-02T09:57:08.110Z,24.02
2019-05-02T09:59:35.511Z,24.02
2019-05-02T10:02:02.851Z,24.02
2019-05-02T10:04:32.544Z,23.11
2019-05-02T10:07:00.122Z,23.22
2019-05-02T10:09:27.480Z,22.83
2019-05-02T10:11:54.642Z,22.86
2019-05-02T10:14:22.650Z,23.28
2019-05-02T10:16:49.824Z,23.17
2019-05-02T10:19:17.201Z,23.18
2019-05-02T10:21:46.860Z,23.27
2019-05-02T10:24:13.550Z,23.42
2019-05-02T10:26:41.930Z,24.03
2019-05-02T10:29:09.410Z,24.64
2019-05-02T10:31:37.799Z,25.35
2019-05-02T10:34:08.429Z,25.30
2019-05-02T10:36:35.373Z,25.31
2019-05-02T10:39:02.832Z,25.68
2019-05-02T10:41:39.203Z,25.76
2019-05-02T10:44:02.075Z,25.11
2019-05-02T10:46:33.503Z,25.00
2019-05-02T10:48:57.971Z,25.58
2019-05-02T10:51:26.191Z,26.12
2019-05-02T10:53:56.331Z,25.73
2019-05-02T10:56:22.567Z,25.29
2019-05-02T10:58:52.205Z,25.73
2019-05-02T11:01:18.702Z,26.15
2019-05-02T11:03:47.475Z,26.22
2019-05-02T11:06:14.976Z,26.50
2019-05-02T11:08:45.993Z,25.13
2019-05-02T11:11:12.705Z,24.48
2019-05-02T11:13:39.801Z,25.25
2019-05-02T11:16:06.845Z,25.28
2019-05-02T11:18:42.366Z,25.29
2019-05-02T11:21:08.100Z,25.98
2019-05-02T11:23:32.825Z,26.60
2019-05-02T11:26:01.740Z,26.51
2019-05-02T11:28:29.156Z,25.68
2019-05-02T11:30:56.990Z,25.56
2019-05-02T11:33:25.614Z,24.94
2019-05-02T11:35:53.568Z,25.92
2019-05-02T11:38:40.471Z,26.83
2019-05-02T11:40:49.443Z,26.91
2019-05-02T11:43:16.500Z,26.78
2019-05-02T11:45:44.618Z,27.17
2019-05-02T11:48:13.851Z,27.70
2019-05-02T11:50:42.256Z,28.09
2019-05-02T11:53:23.325Z,27.80
2019-05-02T11:55:41.307Z,27.30
2019-05-02T11:58:09.897Z,26.45
2019-05-02T12:00:45.362Z,25.45
2019-05-02T12:03:08.876Z,24.85
2019-05-02T12:05:39.046Z,25.23
2019-05-02T12:08:07.997Z,25.44
2019-05-02T12:10:36.652Z,25.66
2019-05-02T12:13:06.633Z,26.16
2019-05-02T12:15:32.367Z,26.48
2019-05-02T12:18:02.440Z,26.79
2019-05-02T12:20:33.923Z,26.26
2019-05-02T12:22:59.437Z,24.94
2019-05-02T12:25:26.482Z,24.29
2019-05-02T12:27:53.536Z,24.49
2019-05-02T12:30:22.765Z,25.02
2019-05-02T12:32:53.055Z,24.53
2019-05-02T12:35:22.462Z,24.06
2019-05-02T12:37:52.364Z,23.38
2019-05-02T12:40:21.613Z,22.91
2019-05-02T12:42:48.535Z,23.11
2019-05-02T12:45:15.596Z,22.94
2019-05-02T12:47:42.939Z,23.14
2019-05-02T12:50:12.080Z,23.68
2019-05-02T12:52:39.215Z,23.48
2019-05-02T12:55:06.278Z,23.29
2019-05-02T12:57:33.676Z,23.00
2019-05-02T13:00:01.928Z,23.15
2019-05-02T13:02:29.825Z,23.19
2019-05-02T13:04:57.183Z,23.04
2019-05-02T13:07:24.527Z,22.95
2019-05-02T13:09:52.697Z,23.18
2019-05-02T13:12:20.283Z,23.38
2019-05-02T13:14:47.615Z,23.03
2019-05-02T13:17:14.663Z,22.92
2019-05-02T13:19:55.184Z,22.54
2019-05-02T13:22:12.453Z,22.57
2019-05-02T13:24:40.007Z,22.33
2019-05-02T13:27:07.414Z,21.97
2019-05-02T13:29:34.492Z,21.94
2019-05-02T13:32:01.752Z,21.84
2019-05-02T13:34:29.240Z,21.35
2019-05-02T13:36:57.960Z,20.64
2019-05-02T13:39:25.222Z,20.54
2019-05-02T13:41:52.636Z,20.62
2019-05-02T13:44:19.683Z,20.65
2019-05-02T13:46:46.740Z,20.91
2019-05-02T13:49:13.785Z,20.71
2019-05-02T13:51:42.635Z,20.77
2019-05-02T13:54:10.133Z,20.85
2019-05-02T13:56:37.199Z,21.00
2019-05-02T13:59:04.237Z,21.06
2019-05-02T14:01:31.692Z,21.20
2019-05-02T14:04:03.673Z,21.27
2019-05-02T14:06:29.875Z,21.27
2019-05-02T14:08:56.905Z,21.29
2019-05-02T14:11:23.971Z,21.32
2019-05-02T14:13:52.148Z,21.39
2019-05-02T14:16:22.237Z,21.38
2019-05-02T14:18:49.354Z,21.27
2019-05-02T14:21:16.405Z,20.89
2019-05-02T14:23:43.797Z,20.86
2019-05-02T14:26:11.700Z,20.24
2019-05-02T14:28:38.766Z,20.19
2019-05-02T14:31:05.815Z,20.31
2019-05-02T14:33:33.177Z,20.73
2019-05-02T14:36:01.794Z,20.97
2019-05-02T14:38:29.264Z,21.32
2019-05-02T14:40:56.315Z,21.50
2019-05-02T14:43:23.683Z,21.36
2019-05-02T14:45:57.418Z,21.01
2019-05-02T14:48:22.248Z,20.60
2019-05-02T14:50:48.807Z,20.49
2019-05-02T14:53:16.886Z,20.42
2019-05-02T14:55:45.254Z,20.59
2019-05-02T14:58:12.621Z,20.43
2019-05-02T15:00:45.870Z,20.20
2019-05-02T15:03:08.714Z,19.88
2019-05-02T15:05:35.750Z,19.88
2019-05-02T15:08:06.748Z,19.87
2019-05-02T15:10:35.014Z,20.04
2019-05-02T15:13:03.823Z,20.27
2019-05-02T15:15:33.585Z,20.34
2019-05-02T15:17:59.564Z,20.31
2019-05-02T15:20:38.671Z,20.28
2019-05-02T15:22:55.699Z,20.05
2019-05-02T15:25:22.746Z,19.94
2019-05-02T15:27:55.462Z,19.79
2019-05-02T15:30:18.793Z,19.77
2019-05-02T15:32:46.629Z,19.35
2019-05-02T15:35:17.697Z,19.19
2019-05-02T15:37:42.688Z,19.02
2019-05-02T15:42:39.143Z,18.66
2019-05-02T15:45:06.182Z,18.57
2019-05-02T15:47:37.100Z,18.64
2019-05-02T15:50:02.995Z,18.68
2019-05-02T15:52:32.667Z,18.81
2019-05-02T15:55:03.532Z,18.95
2019-05-02T15:57:32.705Z,19.00
2019-05-02T15:59:57.710Z,19.01
2019-05-02T16:02:26.630Z,19.10
2019-05-02T16:04:57.014Z,19.05
2019-05-02T16:07:24.456Z,18.84
2019-05-02T16:09:55.873Z,18.83
2019-05-02T16:12:22.116Z,18.75
2019-05-02T16:14:49.058Z,18.71
2019-05-02T16:17:17.753Z,18.49
2019-05-02T16:19:44.948Z,18.25
2019-05-02T16:22:12.099Z,18.12
2019-05-02T16:24:44.002Z,17.66
2019-05-02T16:27:09.342Z,17.56
2019-05-02T16:29:36.591Z,16.99
2019-05-02T16:32:05.539Z,16.31
2019-05-02T16:34:35.334Z,15.84
2019-05-02T16:37:01.934Z,15.55
2019-05-02T16:39:32.458Z,15.34
2019-05-02T16:42:12.397Z,15.06
2019-05-02T16:47:14.093Z,14.49
2019-05-02T16:49:41.950Z,13.99
2019-05-02T16:52:10.443Z,13.40
2019-05-02T16:54:41.684Z,12.87
2019-05-02T16:57:06.819Z,12.10
2019-05-02T17:02:17.879Z,11.14
2019-05-02T17:04:45.360Z,10.83
2019-05-02T17:07:22.104Z,10.65
2019-05-02T17:12:37.149Z,10.58
2019-05-02T17:17:42.328Z,10.59
2019-05-02T17:25:32.431Z,10.52
2019-05-02T17:28:10.255Z,10.51
2019-05-02T17:33:25.893Z,10.51
2019-05-02T17:41:07.982Z,10.53
2019-05-02T17:43:37.380Z,10.50
2019-05-02T17:53:54.242Z,10.31
2019-05-02T17:59:06.347Z,10.31
2019-05-02T18:01:35.169Z,10.20
2019-05-02T18:04:06.686Z,10.21
2019-05-02T18:06:36.457Z,10.14
2019-05-02T18:09:15.699Z,10.11
2019-05-02T18:11:43.009Z,10.12
2019-05-02T18:14:21.076Z,10.07
2019-05-02T18:19:31.603Z,9.99
2019-05-02T18:22:08.315Z,9.90
2019-05-02T18:24:37.351Z,9.88
2019-05-02T18:27:08.273Z,9.88
2019-05-02T18:29:42.614Z,9.88
2019-05-02T18:32:09.915Z,9.86
2019-05-02T18:34:41.881Z,9.83
2019-05-02T18:37:09.190Z,9.81
2019-05-02T18:39:44.777Z,9.84
2019-05-02T18:42:08.874Z,9.81
2019-05-02T18:44:39.795Z,9.77
2019-05-02T18:47:06.985Z,9.79
2019-05-02T18:49:43.536Z,9.77
2019-05-02T18:57:32.765Z,9.77
2019-05-02T19:00:02.019Z,9.71
2019-05-02T19:02:35.299Z,9.68
2019-05-02T19:05:02.005Z,9.61
2019-05-02T19:07:33.256Z,9.58
2019-05-02T19:09:58.958Z,9.56
2019-05-02T19:15:03.161Z,9.57
2019-05-02T19:17:30.400Z,9.61
2019-05-02T19:19:57.599Z,9.62
2019-05-02T19:22:24.851Z,9.61
2019-05-02T19:25:05.091Z,9.65
2019-05-02T19:27:33.101Z,9.70
2019-05-02T19:30:12.705Z,9.75
2019-05-02T19:32:41.668Z,9.78
2019-05-02T19:35:18.191Z,9.77
2019-05-02T19:37:48.412Z,9.75
2019-05-02T19:40:20.150Z,9.79
2019-05-02T19:45:26.143Z,9.83
2019-05-02T19:47:58.992Z,9.85
2019-05-02T19:50:31.882Z,9.85
2019-05-02T19:53:02.007Z,9.81
2019-05-02T19:58:16.969Z,9.81
2019-05-02T20:00:48.443Z,9.79
2019-05-02T20:03:21.869Z,9.80
2019-05-02T20:06:02.541Z,9.78
2019-05-02T20:14:00.503Z,9.76
2019-05-02T20:16:26.767Z,9.76
2019-05-02T20:18:54.006Z,9.72
2019-05-02T20:21:27.436Z,9.72
2019-05-02T20:23:51.237Z,9.71
2019-05-02T20:26:18.313Z,9.70
2019-05-02T20:28:45.642Z,9.67
2019-05-02T20:31:12.688Z,9.70
2019-05-02T20:33:39.817Z,9.66
2019-05-02T20:36:08.123Z,9.68
2019-05-02T20:38:35.492Z,9.68
2019-05-02T20:41:03.034Z,9.68
2019-05-02T20:43:32.123Z,9.67
2019-05-02T20:45:59.090Z,9.69
2019-05-02T20:48:26.126Z,9.70
2019-05-02T20:50:53.171Z,9.67
2019-05-02T20:53:30.724Z,9.62
2019-05-02T20:55:48.959Z,9.58
2019-05-02T20:58:16.077Z,9.57
2019-05-02T21:00:43.120Z,9.50
2019-05-02T21:03:11.975Z,9.47
2019-05-02T21:05:39.276Z,9.39
2019-05-02T21:08:06.483Z,9.34
2019-05-02T21:10:33.527Z,9.31
2019-05-02T21:13:02.063Z,9.28
2019-05-02T21:15:29.592Z,9.25
2019-05-02T21:17:56.641Z,9.18
2019-05-02T21:20:24.651Z,9.15
2019-05-02T21:22:53.031Z,9.12
2019-05-02T21:25:20.223Z,9.14
2019-05-02T21:27:47.542Z,9.08
2019-05-02T21:30:14.583Z,9.03
2019-05-02T21:32:42.856Z,8.98
2019-05-02T21:35:11.781Z,8.99
2019-05-02T21:37:38.960Z,8.95
2019-05-02T21:40:06.315Z,8.94
2019-05-02T21:42:33.368Z,8.93
2019-05-02T21:45:02.322Z,8.92
2019-05-02T21:47:31.875Z,8.86
2019-05-02T21:50:01.701Z,8.84
2019-05-02T21:52:28.358Z,8.86
2019-05-02T21:54:55.671Z,8.82
2019-05-02T21:57:22.955Z,8.80
2019-05-02T21:59:50.280Z,8.80
2019-05-02T22:02:17.632Z,8.79
2019-05-02T22:04:47.257Z,8.83
2019-05-02T22:07:14.591Z,8.82
2019-05-02T22:09:41.963Z,8.79
2019-05-02T22:12:09.002Z,8.80
2019-05-02T22:14:36.058Z,8.81
2019-05-02T22:17:03.094Z,8.82
2019-05-02T22:19:32.324Z,8.79
2019-05-02T22:22:01.522Z,8.80
2019-05-02T22:24:29.253Z,8.84
2019-05-02T22:26:56.630Z,8.86
2019-05-02T22:29:23.686Z,8.84
2019-05-02T22:31:54.245Z,8.83
2019-05-02T22:34:19.474Z,8.80
2019-05-02T22:36:46.847Z,8.79
2019-05-02T22:39:13.899Z,8.81
2019-05-02T22:41:41.997Z,8.81
2019-05-02T22:44:12.347Z,8.79
2019-05-02T22:46:39.358Z,8.81
2019-05-02T22:49:06.483Z,8.80
2019-05-02T22:51:33.781Z,8.77
2019-05-02T22:54:02.845Z,8.80
2019-05-02T22:56:31.639Z,8.83
2019-05-02T22:58:59.615Z,8.82
2019-05-02T23:01:26.650Z,8.86
2019-05-02T23:03:53.960Z,8.87
2019-05-02T23:06:21.251Z,8.91
2019-05-02T23:08:48.302Z,8.86
2019-05-02T23:11:15.347Z,8.79
2019-05-02T23:13:42.405Z,8.75
2019-05-02T23:16:09.755Z,8.80
2019-05-02T23:18:37.127Z,8.78
2019-05-02T23:21:04.181Z,8.79
2019-05-02T23:23:32.763Z,8.77
2019-05-02T23:26:00.111Z,8.75
2019-05-02T23:28:27.145Z,8.77
2019-05-02T23:30:54.502Z,8.79
2019-05-02T23:33:23.510Z,8.80
2019-05-02T23:35:52.141Z,8.83
2019-05-02T23:38:21.658Z,8.85
2019-05-02T23:40:48.627Z,8.89
2019-05-02T23:43:15.982Z,8.94
2019-05-02T23:45:43.040Z,8.97
2019-05-02T23:48:10.318Z,8.97
2019-05-02T23:50:37.369Z,8.96
2019-05-02T23:53:04.687Z,8.95
2019-05-02T23:55:32.278Z,8.92
2019-05-02T23:58:00.301Z,8.90
